createdAt,value
2023-11-14T00:02:12.263Z,99100.72
2023-11-14T00:05:15.323Z,99107.63
2023-11-14T00:08:18.212Z,99112.91
2023-11-14T00:11:22.914Z,99093.09
2023-11-14T00:14:25.951Z,99085.03
2023-11-14T00:17:29.761Z,99109.84
2023-11-14T00:20:33.170Z,99086.28
2023-11-14T00:23:36.078Z,99092.00
2023-11-14T00:26:40.500Z,99105.81
2023-11-14T00:29:43.429Z,99096.59
2023-11-14T00:32:46.629Z,99092.44
2023-11-14T00:35:49.906Z,99096.38
2023-11-14T00:38:52.982Z,99085.22
2023-11-14T00:41:57.275Z,99081.00
2023-11-14T00:45:00.158Z,99076.75
2023-11-14T00:48:03.449Z,99067.19
2023-11-14T00:51:06.845Z,99073.88
2023-11-14T00:54:09.801Z,99060.22
2023-11-14T00:57:14.254Z,99058.50
2023-11-14T01:00:19.101Z,99059.97
2023-11-14T01:03:23.566Z,99051.59
2023-11-14T01:06:28.026Z,99048.22
2023-11-14T01:09:31.388Z,99044.09
2023-11-14T01:12:35.762Z,99046.63
2023-11-14T01:15:39.062Z,99044.63
2023-11-14T01:18:42.552Z,99050.44
2023-11-14T01:21:45.558Z,99041.31
2023-11-14T01:24:48.497Z,99051.50
2023-11-14T01:27:52.738Z,99061.06
2023-11-14T01:30:55.747Z,99048.31
2023-11-14T01:33:59.523Z,99058.94
2023-11-14T01:37:05.631Z,99062.97
2023-11-14T01:40:10.791Z,99047.66
2023-11-14T01:43:15.805Z,99066.47
2023-11-14T01:46:21.030Z,99063.25
2023-11-14T01:49:25.923Z,99060.09
2023-11-14T01:52:29.726Z,99049.78
2023-11-14T01:55:33.806Z,99024.06
2023-11-14T01:58:39.243Z,99030.50
2023-11-14T02:01:42.844Z,99031.53
2023-11-14T02:04:49.962Z,99034.53
2023-11-14T02:07:56.913Z,99030.72
2023-11-14T02:11:00.640Z,99023.59
2023-11-14T02:14:07.039Z,99024.47
2023-11-14T02:17:17.052Z,99029.66
2023-11-14T02:20:20.451Z,99019.28
2023-11-14T02:23:28.130Z,99015.44
2023-11-14T02:26:33.047Z,98998.50
2023-11-14T02:29:40.187Z,99003.38
2023-11-14T02:32:43.526Z,99007.16
2023-11-14T02:35:46.955Z,99011.81
2023-11-14T02:38:50.368Z,99020.97
2023-11-14T02:41:55.206Z,99009.06
2023-11-14T02:44:58.874Z,99012.25
2023-11-14T02:48:02.866Z,99014.38
2023-11-14T02:51:07.327Z,99016.56
2023-11-14T02:54:10.806Z,99018.38
2023-11-14T02:57:15.784Z,99012.88
2023-11-14T03:00:19.970Z,99011.16
2023-11-14T03:03:23.733Z,99011.69
2023-11-14T03:06:27.302Z,99002.47
2023-11-14T03:09:30.971Z,99015.50
2023-11-14T03:12:36.081Z,99007.53
2023-11-14T03:15:43.683Z,98998.78
2023-11-14T03:18:47.360Z,98998.78
2023-11-14T03:21:50.751Z,98971.34
2023-11-14T03:24:54.386Z,98974.84
2023-11-14T03:28:01.048Z,98963.13
2023-11-14T03:31:04.621Z,98960.53
2023-11-14T03:34:07.954Z,98985.13
2023-11-14T03:37:11.736Z,98982.13
2023-11-14T03:40:15.603Z,98974.16
2023-11-14T03:43:20.643Z,98987.03
2023-11-14T03:46:24.050Z,98998.91
2023-11-14T03:49:27.603Z,99002.78
2023-11-14T03:52:31.773Z,99000.63
2023-11-14T03:55:35.372Z,99003.63
2023-11-14T03:58:41.931Z,98999.16
2023-11-14T04:01:45.459Z,98993.72
2023-11-14T04:04:48.775Z,98984.84
2023-11-14T04:07:52.994Z,98988.72
2023-11-14T04:10:56.759Z,98989.75
2023-11-14T04:14:01.826Z,98999.03
2023-11-14T04:17:06.051Z,98991.00
2023-11-14T04:20:11.214Z,98974.09
2023-11-14T04:23:14.737Z,98984.25
2023-11-14T04:26:19.668Z,98982.88
2023-11-14T04:29:24.703Z,98981.75
2023-11-14T04:32:28.277Z,98963.91
2023-11-14T04:35:31.644Z,98970.72
2023-11-14T04:38:35.042Z,98973.09
2023-11-14T04:41:39.351Z,98965.59
2023-11-14T04:44:44.308Z,98990.22
2023-11-14T04:47:52.417Z,98981.53
2023-11-14T04:51:03.760Z,98992.28
2023-11-14T04:54:07.399Z,98972.59
2023-11-14T04:57:10.733Z,98976.22
2023-11-14T05:00:16.433Z,98983.59
2023-11-14T05:03:20.821Z,99007.72
2023-11-14T05:06:24.129Z,99008.13
2023-11-14T05:12:46.435Z,98999.28
2023-11-14T05:15:53.703Z,99004.69
2023-11-14T05:18:57.103Z,98993.75
2023-11-14T05:22:00.666Z,99000.31
2023-11-14T05:25:04.513Z,98998.38
2023-11-14T05:28:17.630Z,98996.78
2023-11-14T05:31:22.553Z,99007.63
2023-11-14T05:34:26.019Z,99008.69
2023-11-14T05:42:01.435Z,99007.56
2023-11-14T05:45:05.315Z,98999.19
2023-11-14T05:48:20.589Z,98988.81
2023-11-14T05:51:25.070Z,98997.09
2023-11-14T05:54:28.547Z,98996.75
2023-11-14T05:57:32.017Z,98995.91
2023-11-14T06:00:35.627Z,98979.38
2023-11-14T06:03:43.042Z,98977.47
2023-11-14T06:06:46.500Z,99001.13
2023-11-14T06:09:50.305Z,99010.78
2023-11-14T06:12:53.777Z,99030.91
2023-11-14T06:15:57.411Z,99027.31
2023-11-14T06:19:02.161Z,99019.47
2023-11-14T06:22:06.326Z,99016.50
2023-11-14T06:25:10.521Z,99027.72
2023-11-14T06:28:14.020Z,99036.66
2023-11-14T06:31:17.352Z,99056.34
2023-11-14T06:34:23.594Z,99068.66
2023-11-14T06:37:26.884Z,99068.97
2023-11-14T06:40:30.258Z,99074.59
2023-11-14T06:43:33.839Z,99077.66
2023-11-14T06:46:37.383Z,99078.66
2023-11-14T06:49:46.570Z,99062.66
2023-11-14T06:52:50.126Z,99072.50
2023-11-14T06:55:53.852Z,99076.72
2023-11-14T06:58:57.485Z,99082.66
2023-11-14T07:02:02.763Z,99082.00
2023-11-14T07:05:08.259Z,99083.94
2023-11-14T07:08:12.662Z,99075.25
2023-11-14T07:11:19.677Z,99080.44
2023-11-14T07:14:25.582Z,99096.09
2023-11-14T07:17:29.288Z,99112.06
2023-11-14T07:20:34.295Z,99113.84
2023-11-14T07:23:43.699Z,99126.69
2023-11-14T07:26:50.917Z,99123.28
2023-11-14T07:29:54.043Z,99120.50
2023-11-14T07:32:57.591Z,99118.84
2023-11-14T07:36:01.895Z,99112.69
2023-11-14T07:39:06.393Z,99108.34
2023-11-14T07:42:09.297Z,99098.75
2023-11-14T07:45:13.238Z,99118.63
2023-11-14T07:48:16.168Z,99125.75
2023-11-14T07:51:21.802Z,99111.19
2023-11-14T07:54:24.856Z,99110.28
2023-11-14T07:57:27.713Z,99119.56
2023-11-14T08:00:31.769Z,99135.59
2023-11-14T08:03:34.633Z,99124.59
2023-11-14T08:06:38.903Z,99122.34
2023-11-14T08:09:41.694Z,99134.03
2023-11-14T08:12:44.520Z,99133.06
2023-11-14T08:15:48.949Z,99137.66
2023-11-14T08:18:52.630Z,99140.44
2023-11-14T08:21:59.009Z,99148.69
2023-11-14T08:25:01.783Z,99157.38
2023-11-14T08:28:05.835Z,99153.47
2023-11-14T08:31:08.741Z,99142.31
2023-11-14T08:34:11.526Z,99150.09
2023-11-14T08:37:19.153Z,99163.16
2023-11-14T08:40:26.066Z,99164.84
2023-11-14T08:43:28.889Z,99154.84
2023-11-14T08:46:32.147Z,99168.13
2023-11-14T08:49:35.028Z,99162.50
2023-11-14T08:52:39.740Z,99158.88
2023-11-14T08:55:42.559Z,99175.28
2023-11-14T08:58:45.790Z,99186.31
2023-11-14T09:01:49.210Z,99183.66
2023-11-14T09:04:52.132Z,99189.91
2023-11-14T09:07:56.357Z,99192.88
2023-11-14T09:11:00.336Z,99208.91
2023-11-14T09:14:03.493Z,99213.28
2023-11-14T09:17:06.611Z,99209.03
2023-11-14T09:20:12.096Z,99208.38
2023-11-14T09:23:16.248Z,99217.94
2023-11-14T09:26:19.127Z,99214.09
2023-11-14T09:29:22.622Z,99216.56
2023-11-14T09:32:26.013Z,99227.50
2023-11-14T09:35:28.860Z,99238.34
2023-11-14T09:38:33.276Z,99245.25
2023-11-14T09:41:36.321Z,99244.09
2023-11-14T09:44:39.741Z,99242.34
2023-11-14T09:47:42.799Z,99257.56
2023-11-14T09:50:46.815Z,99253.63
2023-11-14T09:53:51.429Z,99250.75
2023-11-14T09:56:55.084Z,99273.59
2023-11-14T10:00:02.816Z,99273.63
2023-11-14T10:03:06.262Z,99267.13
2023-11-14T10:06:09.756Z,99270.53
2023-11-14T10:09:16.361Z,99279.13
2023-11-14T10:12:34.005Z,99267.34
2023-11-14T10:15:36.932Z,99280.41
2023-11-14T10:18:39.638Z,99277.41
2023-11-14T10:21:43.084Z,99272.66
2023-11-14T10:24:51.627Z,99279.59
2023-11-14T10:28:00.604Z,99278.41
2023-11-14T10:31:15.602Z,99278.41
2023-11-14T10:34:27.874Z,99277.44
2023-11-14T10:37:32.566Z,99282.31
2023-11-14T10:40:48.314Z,99281.47
2023-11-14T10:43:52.073Z,99275.19
2023-11-14T10:46:56.111Z,99277.22
2023-11-14T10:49:59.613Z,99278.72
2023-11-14T10:53:03.252Z,99282.34
2023-11-14T10:56:09.345Z,99281.03
2023-11-14T10:59:14.189Z,99275.44
2023-11-14T11:02:17.934Z,99295.94
2023-11-14T11:05:28.265Z,99287.19
2023-11-14T11:08:34.090Z,99282.09
2023-11-14T11:11:42.543Z,99287.88
2023-11-14T11:14:46.800Z,99286.91
2023-11-14T11:17:50.080Z,99286.16
2023-11-14T11:20:53.011Z,99272.53
2023-11-14T11:24:10.536Z,99296.88
2023-11-14T11:27:22.741Z,99294.97
2023-11-14T11:30:25.941Z,99294.00
2023-11-14T11:33:36.571Z,99305.91
2023-11-14T11:36:39.775Z,99299.81
2023-11-14T11:40:08.156Z,99301.22
2023-11-14T11:43:23.789Z,99301.44
2023-11-14T11:46:47.342Z,99309.69
2023-11-14T11:49:50.545Z,99328.84
2023-11-14T11:53:05.404Z,99321.06
2023-11-14T11:56:12.511Z,99313.09
2023-11-14T11:59:16.874Z,99298.47
2023-11-14T12:02:24.450Z,99303.31
2023-11-14T12:05:28.929Z,99307.47
2023-11-14T12:08:31.877Z,99317.38
2023-11-14T12:11:35.357Z,99318.63
2023-11-14T12:14:40.058Z,99314.16
2023-11-14T12:17:48.278Z,99308.50
2023-11-14T12:20:51.799Z,99317.25
2023-11-14T12:23:54.966Z,99332.00
2023-11-14T12:26:59.746Z,99328.19
2023-11-14T12:30:13.970Z,99316.28
2023-11-14T12:33:17.706Z,99326.06
2023-11-14T12:36:24.126Z,99328.47
2023-11-14T12:39:27.364Z,99331.63
2023-11-14T12:42:30.484Z,99335.50
2023-11-14T12:45:47.091Z,99327.72
2023-11-14T12:49:10.076Z,99322.50
2023-11-14T12:52:12.852Z,99325.66
2023-11-14T12:55:15.681Z,99321.97
2023-11-14T12:58:18.435Z,99321.09
2023-11-14T13:01:22.541Z,99318.66
2023-11-14T13:04:26.034Z,99323.78
2023-11-14T13:07:28.818Z,99317.50
2023-11-14T13:10:31.688Z,99331.22
2023-11-14T13:13:34.468Z,99323.69
2023-11-14T13:16:38.774Z,99320.50
2023-11-14T13:19:42.813Z,99316.13
2023-11-14T13:22:46.042Z,99319.97
2023-11-14T13:25:48.797Z,99314.31
2023-11-14T13:28:52.554Z,99317.81
2023-11-14T13:31:57.058Z,99315.16
2023-11-14T13:35:06.585Z,99333.97
2023-11-14T13:38:10.124Z,99331.50
2023-11-14T13:44:19.157Z,99350.22
2023-11-14T13:47:23.558Z,99352.56
2023-11-14T13:50:26.524Z,99357.81
2023-11-14T13:53:31.688Z,99355.09
2023-11-14T13:56:35.469Z,99358.50
2023-11-14T13:59:38.819Z,99367.22
2023-11-14T14:02:43.353Z,99375.59
2023-11-14T14:05:46.140Z,99374.50
2023-11-14T14:08:48.871Z,99382.19
2023-11-14T14:11:51.626Z,99371.69
2023-11-14T14:14:54.377Z,99380.16
2023-11-14T14:17:59.943Z,99375.31
2023-11-14T14:21:04.458Z,99382.88
2023-11-14T14:24:09.927Z,99389.75
2023-11-14T14:27:13.195Z,99385.09
2023-11-14T14:30:16.440Z,99380.22
2023-11-14T14:33:20.625Z,99391.97
2023-11-14T14:36:23.902Z,99391.31
2023-11-14T14:39:27.765Z,99395.84
2023-11-14T14:42:30.643Z,99392.56
2023-11-14T14:45:33.519Z,99391.63
2023-11-14T14:48:37.791Z,99394.50
2023-11-14T14:51:40.607Z,99391.28
2023-11-14T14:54:43.799Z,99394.09
2023-11-14T14:57:46.584Z,99387.66
2023-11-14T15:00:49.590Z,99398.06
2023-11-14T15:03:53.968Z,99397.16
2023-11-14T15:06:56.961Z,99414.75
2023-11-14T15:09:59.888Z,99397.16
2023-11-14T15:13:04.211Z,99408.91
2023-11-14T15:16:09.148Z,99403.50
2023-11-14T15:19:13.261Z,99410.81
2023-11-14T15:22:16.182Z,99411.56
2023-11-14T15:25:19.634Z,99425.97
2023-11-14T15:28:22.492Z,99426.16
2023-11-14T15:31:25.440Z,99433.44
2023-11-14T15:34:29.645Z,99429.91
2023-11-14T15:37:32.398Z,99425.19
2023-11-14T15:40:35.195Z,99420.00
2023-11-14T15:43:37.998Z,99428.41
2023-11-14T15:46:40.820Z,99436.84
2023-11-14T15:49:44.958Z,99433.69
2023-11-14T15:52:47.801Z,99448.44
2023-11-14T15:55:50.619Z,99459.41
2023-11-14T15:58:55.141Z,99458.09
2023-11-14T16:01:58.171Z,99466.25
2023-11-14T16:05:02.449Z,99457.72
2023-11-14T16:08:05.829Z,99457.50
2023-11-14T16:11:09.137Z,99459.03
2023-11-14T16:14:12.134Z,99463.97
2023-11-14T16:17:15.037Z,99468.31
2023-11-14T16:20:20.517Z,99473.97
2023-11-14T16:23:23.864Z,99475.47
2023-11-14T16:26:27.079Z,99475.84
2023-11-14T16:29:30.235Z,99478.53
2023-11-14T16:32:33.414Z,99482.19
2023-11-14T16:35:37.769Z,99487.03
2023-11-14T16:38:40.636Z,99479.19
2023-11-14T16:41:43.648Z,99478.91
2023-11-14T16:44:46.836Z,99475.78
2023-11-14T16:47:50.819Z,99460.63
2023-11-14T16:50:57.152Z,99457.22
2023-11-14T16:54:01.662Z,99458.78
2023-11-14T16:57:05.252Z,99464.88
2023-11-14T17:00:09.770Z,99464.13
2023-11-14T17:03:12.930Z,99474.63
2023-11-14T17:06:17.328Z,99467.81
2023-11-14T17:09:20.157Z,99465.81
2023-11-14T17:12:27.752Z,99463.75
2023-11-14T17:15:30.641Z,99473.25
2023-11-14T17:18:33.594Z,99474.47
2023-11-14T17:21:38.098Z,99471.72
2023-11-14T17:24:41.072Z,99477.50
2023-11-14T17:27:44.040Z,99472.06
2023-11-14T17:30:46.894Z,99464.91
2023-11-14T17:33:50.990Z,99474.19
2023-11-14T17:36:55.496Z,99472.16
2023-11-14T17:39:59.146Z,99467.38
2023-11-14T17:43:02.168Z,99462.75
2023-11-14T17:46:06.458Z,99468.19
2023-11-14T17:49:13.995Z,99463.63
2023-11-14T17:52:19.153Z,99463.03
2023-11-14T17:55:23.309Z,99463.09
2023-11-14T17:58:26.502Z,99470.81
2023-11-14T18:01:30.726Z,99462.66
2023-11-14T18:04:33.694Z,99464.72
2023-11-14T18:07:38.436Z,99462.66
2023-11-14T18:10:41.351Z,99466.59
2023-11-14T18:13:44.699Z,99463.03
2023-11-14T18:16:47.485Z,99467.72
2023-11-14T18:19:50.279Z,99467.00
2023-11-14T18:22:55.391Z,99463.06
2023-11-14T18:25:58.251Z,99460.28
2023-11-14T18:29:01.522Z,99461.88
2023-11-14T18:32:05.155Z,99463.22
2023-11-14T18:35:11.230Z,99460.75
2023-11-14T18:38:15.452Z,99469.72
2023-11-14T18:41:19.793Z,99457.59
2023-11-14T18:44:22.636Z,99462.25
2023-11-14T18:47:25.761Z,99455.88
2023-11-14T18:50:30.565Z,99468.19
2023-11-14T18:53:34.792Z,99457.97
2023-11-14T18:56:37.770Z,99461.28
2023-11-14T18:59:41.021Z,99452.69
2023-11-14T19:02:44.013Z,99456.72
2023-11-14T19:05:46.933Z,99458.53
2023-11-14T19:08:51.235Z,99453.72
2023-11-14T19:11:54.443Z,99454.56
2023-11-14T19:15:00.325Z,99448.03
2023-11-14T19:18:03.290Z,99450.84
2023-11-14T19:21:39.993Z,99457.19
2023-11-14T19:24:30.881Z,99457.41
2023-11-14T19:27:33.726Z,99462.13
2023-11-14T19:30:36.643Z,99456.78
2023-11-14T19:33:39.580Z,99461.91
2023-11-14T19:36:42.536Z,99457.38
2023-11-14T19:39:46.732Z,99453.94
2023-11-14T19:42:49.681Z,99458.41
2023-11-14T19:45:54.233Z,99458.22
2023-11-14T19:48:57.407Z,99454.91
2023-11-14T19:52:17.529Z,99457.72
2023-11-14T19:55:21.866Z,99458.84
2023-11-14T19:58:24.730Z,99457.28
2023-11-14T20:01:28.150Z,99463.25
2023-11-14T20:04:31.144Z,99465.56
2023-11-14T20:07:34.064Z,99465.28
2023-11-14T20:10:38.263Z,99465.66
2023-11-14T20:13:44.390Z,99466.25
2023-11-14T20:16:47.206Z,99469.25
2023-11-14T20:19:50.063Z,99470.88
2023-11-14T20:22:52.870Z,99466.84
2023-11-14T20:25:57.123Z,99467.88
2023-11-14T20:28:59.989Z,99480.88
2023-11-14T20:32:03.014Z,99476.28
2023-11-14T20:35:06.627Z,99486.69
2023-11-14T20:38:09.512Z,99482.94
2023-11-14T20:41:15.957Z,99494.66
2023-11-14T20:44:19.603Z,99496.88
2023-11-14T20:47:22.400Z,99498.22
2023-11-14T20:50:26.975Z,99498.97
2023-11-14T20:53:29.754Z,99496.66
2023-11-14T20:56:33.964Z,99497.94
2023-11-14T20:59:36.813Z,99499.25
2023-11-14T21:02:40.207Z,99498.03
2023-11-14T21:05:43.413Z,99496.50
2023-11-14T21:08:46.212Z,99506.91
2023-11-14T21:11:50.897Z,99503.69
2023-11-14T21:14:54.467Z,99501.25
2023-11-14T21:17:57.411Z,99497.81
2023-11-14T21:21:00.414Z,99510.59
2023-11-14T21:24:03.882Z,99515.81
2023-11-14T21:27:08.203Z,99522.06
2023-11-14T21:30:13.496Z,99524.81
2023-11-14T21:33:23.984Z,99525.59
2023-11-14T21:36:29.523Z,99531.84
2023-11-14T21:39:32.435Z,99530.59
2023-11-14T21:42:36.626Z,99540.34
2023-11-14T21:45:39.344Z,99535.34
2023-11-14T21:48:42.170Z,99543.84
2023-11-14T21:51:44.986Z,99560.16
2023-11-14T21:54:48.149Z,99565.19
2023-11-14T21:57:52.472Z,99563.56
2023-11-14T22:00:55.262Z,99568.78
2023-11-14T22:03:58.153Z,99578.69
2023-11-14T22:07:01.016Z,99575.34
2023-11-14T22:10:04.940Z,99581.66
2023-11-14T22:13:09.387Z,99584.22
2023-11-14T22:16:12.184Z,99592.72
2023-11-14T22:19:15.237Z,99597.56
2023-11-14T22:22:18.001Z,99603.59
2023-11-14T22:25:20.786Z,99605.72
2023-11-14T22:28:25.019Z,99609.84
2023-11-14T22:31:28.077Z,99615.28
2023-11-14T22:34:31.012Z,99629.34
2023-11-14T22:37:34.259Z,99637.88
2023-11-14T22:40:37.096Z,99647.63
2023-11-14T22:43:41.638Z,99655.50
2023-11-14T22:46:44.660Z,99667.19
2023-11-14T22:49:47.888Z,99662.94
2023-11-14T22:52:50.852Z,99667.03
2023-11-14T22:55:53.670Z,99672.41
2023-11-14T22:58:58.051Z,99676.53
2023-11-14T23:02:01.028Z,99675.75
2023-11-14T23:05:05.734Z,99685.56
2023-11-14T23:08:10.340Z,99696.84
2023-11-14T23:11:14.614Z,99707.81
2023-11-14T23:14:19.592Z,99724.63
2023-11-14T23:17:22.449Z,99720.72
2023-11-14T23:20:26.047Z,99730.81
2023-11-14T23:23:29.706Z,99729.19
2023-11-14T23:26:32.810Z,99734.44
2023-11-14T23:29:37.047Z,99746.59
2023-11-14T23:32:40.468Z,99738.53
2023-11-14T23:35:43.533Z,99745.72
2023-11-14T23:38:46.948Z,99753.28
2023-11-14T23:41:50.666Z,99756.66
2023-11-14T23:44:55.014Z,99757.00
2023-11-14T23:47:57.911Z,99768.31
2023-11-14T23:51:00.756Z,99773.94
2023-11-14T23:54:03.638Z,99772.75
2023-11-14T23:57:06.777Z,99780.06
